Time;durP1;ratioP1;P1;durP2;ratioP2;P2;SDS_P1;SDS_P2;PMS_P1;PMS_P2;Temp;Humidity;BMP_temperature;BMP_pressure;BME280_temperature;BME280_humidity;BME280_pressure;Samples;Min_cycle;Max_cycle;Signal;HPM_P1;HPM_P2
2021/10/19 00:02:05;;;;;;;15.50;10.05;;;;;;;;;;5054834;28;20536;-79
2021/10/19 00:04:31;;;;;;;13.18;8.82;;;;;;;;;;5054023;28;20041;-80
2021/10/19 00:06:57;;;;;;;14.88;9.25;;;;;;;;;;5060704;28;20447;-80
2021/10/19 00:09:24;;;;;;;20.80;10.38;;;;;;;;;;5052900;28;20049;-80
2021/10/19 00:11:50;;;;;;;13.73;8.95;;;;;;;;;;5052563;28;20103;-79
2021/10/19 00:14:18;;;;;;;24.00;10.07;;;;;;;;;;5053857;28;20067;-78
2021/10/19 00:16:44;;;;;;;13.52;9.18;;;;;;;;;;5058185;28;20048;-79
2021/10/19 00:19:11;;;;;;;39.63;10.77;;;;;;;;;;5053632;28;20041;-80
2021/10/19 00:21:37;;;;;;;30.77;10.25;;;;;;;;;;5050201;28;20489;-80
2021/10/19 00:24:04;;;;;;;17.60;9.55;;;;;;;;;;5051702;28;20045;-79
2021/10/19 00:26:31;;;;;;;17.55;9.27;;;;;;;;;;5053216;28;20053;-78
2021/10/19 00:28:57;;;;;;;20.90;9.30;;;;;;;;;;5053594;28;20440;-80
2021/10/19 00:31:25;;;;;;;19.52;9.73;;;;;;;;;;5054033;28;20080;-79
2021/10/19 00:33:51;;;;;;;16.50;8.75;;;;;;;;;;5054745;28;20095;-79
2021/10/19 00:36:18;;;;;;;22.27;9.45;;;;;;;;;;5053922;28;20456;-80
2021/10/19 00:38:44;;;;;;;13.85;8.82;;;;;;;;;;5054404;28;20298;-79
2021/10/19 00:41:12;;;;;;;16.38;8.57;;;;;;;;;;5053033;28;20497;-80
2021/10/19 00:43:39;;;;;;;13.50;8.10;;;;;;;;;;5053112;28;20410;-80
2021/10/19 00:46:05;;;;;;;13.50;8.18;;;;;;;;;;5053228;28;20514;-79
2021/10/19 00:48:33;;;;;;;11.52;7.72;;;;;;;;;;5053364;28;20041;-79
2021/10/19 00:51:00;;;;;;;20.73;8.60;;;;;;;;;;5053349;28;20052;-79
2021/10/19 00:53:27;;;;;;;16.42;8.20;;;;;;;;;;5054068;28;20124;-79
2021/10/19 00:55:53;;;;;;;12.32;7.75;;;;;;;;;;5057752;28;20075;-79
2021/10/19 00:58:20;;;;;;;14.27;8.48;;;;;;;;;;5053746;28;20053;-79
2021/10/19 01:00:46;;;;;;;18.67;8.15;;;;;;;;;;5051828;28;20409;-81
2021/10/19 01:03:12;;;;;;;16.13;7.88;;;;;;;;;;5075564;22;20107;-83
2021/10/19 01:05:43;;;;;;;11.93;7.00;;;;;;;;;;5077341;28;20044;-83
2021/10/19 01:08:11;;;;;;;24.35;8.57;;;;;;;;;;5072415;28;20044;-81
2021/10/19 01:10:37;;;;;;;14.93;8.50;;;;;;;;;;5076914;28;20377;-83
2021/10/19 01:13:04;;;;;;;12.73;7.50;;;;;;;;;;5076513;28;20051;-81
2021/10/19 01:15:33;;;;;;;19.30;7.13;;;;;;;;;;5086130;28;20056;-81
2021/10/19 01:18:00;;;;;;;11.50;7.60;;;;;;;;;;5078592;28;20044;-81
2021/10/19 01:20:30;;;;;;;17.88;7.47;;;;;;;;;;5075084;28;20045;-81
2021/10/19 01:22:58;;;;;;;15.68;6.90;;;;;;;;;;5063776;28;20041;-81
2021/10/19 01:25:26;;;;;;;13.18;7.45;;;;;;;;;;5074579;28;20045;-82
2021/10/19 01:27:56;;;;;;;23.33;7.30;;;;;;;;;;5079157;28;20071;-81
2021/10/19 01:30:23;;;;;;;26.38;7.78;;;;;;;;;;5073899;28;20501;-83
2021/10/19 01:32:49;;;;;;;42.03;10.10;;;;;;;;;;5070825;28;20044;-83
2021/10/19 01:35:16;;;;;;;14.05;6.80;;;;;;;;;;5072908;28;20451;-83
2021/10/19 01:37:44;;;;;;;21.77;7.53;;;;;;;;;;5065184;28;20489;-83
2021/10/19 01:40:13;;;;;;;16.17;6.80;;;;;;;;;;5089093;28;20138;-80
2021/10/19 01:42:39;;;;;;;10.00;6.43;;;;;;;;;;5072839;28;20109;-80
2021/10/19 01:45:12;;;;;;;12.27;6.07;;;;;;;;;;5075128;28;20059;-80
2021/10/19 01:47:39;;;;;;;9.32;6.72;;;;;;;;;;5072557;28;20064;-81
2021/10/19 01:50:06;;;;;;;24.95;6.95;;;;;;;;;;5084453;28;20044;-81
2021/10/19 01:52:32;;;;;;;12.98;6.40;;;;;;;;;;5077310;28;20052;-81
2021/10/19 01:55:04;;;;;;;27.67;7.15;;;;;;;;;;5073379;28;20051;-81
2021/10/19 01:57:31;;;;;;;49.13;8.13;;;;;;;;;;5064605;28;20052;-81
2021/10/19 01:59:59;;;;;;;8.40;6.22;;;;;;;;;;5072942;28;20475;-81
2021/10/19 02:02:26;;;;;;;54.90;9.38;;;;;;;;;;5076946;28;20056;-80
2021/10/19 02:04:52;;;;;;;16.60;7.10;;;;;;;;;;5073570;28;20083;-80
2021/10/19 02:07:18;;;;;;;10.60;5.90;;;;;;;;;;5078852;28;20048;-81
2021/10/19 02:09:45;;;;;;;9.25;6.25;;;;;;;;;;5083436;28;20381;-81
2021/10/19 02:12:13;;;;;;;8.27;6.18;;;;;;;;;;5088311;28;20060;-81
2021/10/19 02:14:39;;;;;;;12.40;5.90;;;;;;;;;;5070790;28;20053;-81
2021/10/19 02:17:09;;;;;;;26.27;6.35;;;;;;;;;;5075186;28;20078;-81
2021/10/19 02:19:39;;;;;;;13.45;7.15;;;;;;;;;;5072811;28;20051;-81
2021/10/19 02:22:05;;;;;;;24.45;6.32;;;;;;;;;;5077195;28;20041;-81
2021/10/19 02:24:32;;;;;;;10.07;5.28;;;;;;;;;;5079565;28;20048;-81
2021/10/19 02:26:58;;;;;;;15.80;5.97;;;;;;;;;;5077833;28;20080;-81
2021/10/19 02:29:28;;;;;;;8.75;6.30;;;;;;;;;;5069301;28;20049;-81
2021/10/19 02:31:55;;;;;;;13.63;6.40;;;;;;;;;;5076436;28;20086;-81
2021/10/19 02:34:22;;;;;;;14.18;6.35;;;;;;;;;;5073026;28;20052;-81
2021/10/19 02:36:49;;;;;;;11.80;7.00;;;;;;;;;;5076661;28;20135;-81
2021/10/19 02:39:15;;;;;;;20.63;6.25;;;;;;;;;;5075621;28;20048;-82
2021/10/19 02:41:42;;;;;;;9.43;5.78;;;;;;;;;;5072656;28;20056;-81
2021/10/19 02:44:08;;;;;;;10.85;6.35;;;;;;;;;;5072671;28;20049;-81
2021/10/19 02:46:36;;;;;;;9.52;6.30;;;;;;;;;;5072176;28;20045;-81
2021/10/19 02:49:04;;;;;;;9.55;5.65;;;;;;;;;;5075082;28;20048;-81
2021/10/19 02:51:30;;;;;;;17.67;5.93;;;;;;;;;;5092730;28;20044;-81
2021/10/19 02:53:58;;;;;;;11.95;5.78;;;;;;;;;;5076060;28;20045;-82
2021/10/19 02:56:24;;;;;;;8.05;5.93;;;;;;;;;;5075408;28;20433;-82
2021/10/19 02:58:51;;;;;;;9.00;5.72;;;;;;;;;;5074098;28;20045;-82
2021/10/19 03:01:17;;;;;;;9.00;5.75;;;;;;;;;;5068290;28;20049;-82
2021/10/19 03:03:45;;;;;;;26.73;6.50;;;;;;;;;;5077433;28;20047;-82
2021/10/19 03:06:11;;;;;;;8.18;5.57;;;;;;;;;;5078792;28;20401;-82
2021/10/19 03:08:38;;;;;;;7.47;5.15;;;;;;;;;;5082714;28;20069;-82
2021/10/19 03:11:05;;;;;;;9.18;5.53;;;;;;;;;;5076168;28;20090;-82
2021/10/19 03:13:31;;;;;;;8.80;5.72;;;;;;;;;;5072615;28;20052;-81
2021/10/19 03:15:58;;;;;;;8.48;5.15;;;;;;;;;;5067360;28;20487;-81
2021/10/19 03:18:24;;;;;;;11.32;4.55;;;;;;;;;;5073068;28;20041;-81
2021/10/19 03:20:53;;;;;;;8.60;5.47;;;;;;;;;;5070647;28;20052;-81
2021/10/19 03:23:20;;;;;;;7.30;5.18;;;;;;;;;;5072728;28;20514;-81
2021/10/19 03:25:46;;;;;;;10.70;4.82;;;;;;;;;;5074319;28;20067;-81
2021/10/19 03:28:13;;;;;;;13.25;5.60;;;;;;;;;;5077012;28;20048;-82
2021/10/19 03:30:40;;;;;;;6.80;4.88;;;;;;;;;;5070878;28;20043;-82
2021/10/19 03:33:07;;;;;;;8.00;5.43;;;;;;;;;;5068410;28;20051;-81
2021/10/19 03:35:33;;;;;;;7.70;5.28;;;;;;;;;;5071533;28;20410;-81
2021/10/19 03:38:01;;;;;;;9.35;5.13;;;;;;;;;;5074378;28;20037;-81
2021/10/19 03:40:28;;;;;;;7.60;5.13;;;;;;;;;;5065109;28;20072;-81
2021/10/19 03:42:54;;;;;;;7.72;5.25;;;;;;;;;;5075171;28;20097;-81
2021/10/19 03:45:21;;;;;;;10.73;5.70;;;;;;;;;;5076702;28;20047;-81
2021/10/19 03:47:47;;;;;;;6.65;4.80;;;;;;;;;;5072686;28;20095;-80
2021/10/19 03:50:14;;;;;;;9.32;5.65;;;;;;;;;;5069677;28;20119;-80
2021/10/19 03:52:41;;;;;;;7.20;5.07;;;;;;;;;;5077073;28;20048;-80
2021/10/19 03:55:12;;;;;;;7.97;5.07;;;;;;;;;;5075950;28;20044;-80
2021/10/19 03:57:39;;;;;;;8.05;5.38;;;;;;;;;;5077253;28;20051;-80
2021/10/19 04:00:07;;;;;;;8.05;5.40;;;;;;;;;;5075844;28;20424;-80
2021/10/19 04:02:33;;;;;;;11.35;6.00;;;;;;;;;;5067610;28;20068;-82
2021/10/19 04:05:00;;;;;;;8.30;5.68;;;;;;;;;;5072027;28;20139;-81
2021/10/19 04:07:26;;;;;;;7.68;5.22;;;;;;;;;;5062348;28;20090;-82
2021/10/19 04:09:52;;;;;;;8.90;5.80;;;;;;;;;;5061850;28;20067;-81
2021/10/19 04:12:20;;;;;;;9.23;5.38;;;;;;;;;;5061916;28;20041;-81
2021/10/19 04:14:47;;;;;;;8.13;5.80;;;;;;;;;;5067537;28;20044;-81
2021/10/19 04:17:16;;;;;;;9.05;5.97;;;;;;;;;;5065939;28;20086;-81
2021/10/19 04:19:45;;;;;;;9.88;5.70;;;;;;;;;;5070202;28;20079;-81
2021/10/19 04:22:11;;;;;;;8.88;6.05;;;;;;;;;;5067696;28;20053;-81
2021/10/19 04:24:38;;;;;;;9.60;6.53;;;;;;;;;;5074421;28;20040;-81
2021/10/19 04:27:05;;;;;;;10.65;6.80;;;;;;;;;;5065281;28;20061;-81
2021/10/19 04:29:33;;;;;;;9.43;5.50;;;;;;;;;;5055343;28;20457;-81
2021/10/19 04:31:59;;;;;;;7.15;4.88;;;;;;;;;;5056852;28;20049;-81
2021/10/19 04:34:26;;;;;;;9.15;5.93;;;;;;;;;;5075272;28;20088;-81
2021/10/19 04:36:52;;;;;;;9.25;5.28;;;;;;;;;;5065396;28;20056;-81
2021/10/19 04:39:19;;;;;;;8.55;6.10;;;;;;;;;;5073850;28;20060;-81
2021/10/19 04:41:45;;;;;;;8.10;5.65;;;;;;;;;;5071200;28;20048;-81
2021/10/19 04:44:11;;;;;;;11.52;5.85;;;;;;;;;;5058060;28;20052;-81
2021/10/19 04:46:40;;;;;;;8.23;5.85;;;;;;;;;;5054397;28;20056;-81
2021/10/19 04:49:07;;;;;;;10.05;7.18;;;;;;;;;;5054715;28;20045;-81
2021/10/19 04:51:34;;;;;;;14.55;10.90;;;;;;;;;;5063174;28;20093;-81
2021/10/19 04:54:01;;;;;;;13.52;9.60;;;;;;;;;;5074132;28;20052;-81
2021/10/19 04:56:28;;;;;;;11.15;7.57;;;;;;;;;;5073076;28;20044;-81
2021/10/19 04:58:54;;;;;;;12.52;7.00;;;;;;;;;;5074079;28;20045;-81
2021/10/19 05:01:20;;;;;;;9.40;6.72;;;;;;;;;;5074243;28;20102;-81
2021/10/19 05:03:48;;;;;;;26.13;14.07;;;;;;;;;;5074313;28;20056;-81
2021/10/19 05:06:15;;;;;;;18.95;11.25;;;;;;;;;;5074000;28;20055;-81
2021/10/19 05:08:41;;;;;;;18.35;9.95;;;;;;;;;;5074093;28;20106;-81
2021/10/19 05:11:08;;;;;;;18.10;10.35;;;;;;;;;;5073484;28;20083;-81
2021/10/19 05:13:35;;;;;;;14.02;8.40;;;;;;;;;;5073134;28;20098;-81
2021/10/19 05:16:01;;;;;;;13.05;6.90;;;;;;;;;;5075498;28;20063;-81
2021/10/19 05:18:28;;;;;;;10.00;5.72;;;;;;;;;;5077228;28;20110;-81
2021/10/19 05:20:56;;;;;;;11.88;6.40;;;;;;;;;;5076729;28;20049;-81
2021/10/19 05:23:22;;;;;;;10.38;6.15;;;;;;;;;;5074906;28;20070;-81
2021/10/19 05:25:49;;;;;;;12.15;6.28;;;;;;;;;;5076511;28;20067;-81
2021/10/19 05:28:15;;;;;;;10.13;5.70;;;;;;;;;;5077082;28;20405;-81
2021/10/19 05:30:42;;;;;;;9.98;5.82;;;;;;;;;;5077085;28;20438;-81
2021/10/19 05:33:09;;;;;;;9.57;5.72;;;;;;;;;;5077026;28;20056;-81
2021/10/19 05:35:35;;;;;;;11.70;6.47;;;;;;;;;;5076902;28;20055;-81
2021/10/19 05:38:03;;;;;;;19.63;7.32;;;;;;;;;;5077336;28;20048;-81
2021/10/19 05:40:30;;;;;;;7.95;5.35;;;;;;;;;;5071900;28;20041;-81
2021/10/19 05:42:56;;;;;;;12.15;6.40;;;;;;;;;;5076676;28;20048;-81
2021/10/19 05:45:23;;;;;;;16.13;6.60;;;;;;;;;;5076720;28;20048;-81
2021/10/19 05:47:49;;;;;;;16.92;6.72;;;;;;;;;;5076614;28;20048;-81
2021/10/19 05:50:17;;;;;;;14.40;7.18;;;;;;;;;;5076225;28;20457;-81
2021/10/19 05:52:44;;;;;;;15.52;8.93;;;;;;;;;;5075598;28;20051;-81
2021/10/19 05:55:12;;;;;;;8.88;5.03;;;;;;;;;;5075817;28;20405;-81
2021/10/19 05:57:39;;;;;;;9.43;5.32;;;;;;;;;;5075928;28;20094;-81
2021/10/19 06:00:07;;;;;;;16.35;7.50;;;;;;;;;;5076535;28;20091;-81
2021/10/19 06:02:34;;;;;;;11.57;7.00;;;;;;;;;;5075943;28;20393;-81
2021/10/19 06:05:00;;;;;;;8.80;4.97;;;;;;;;;;5076053;28;20051;-81
2021/10/19 06:07:26;;;;;;;8.18;4.97;;;;;;;;;;5079060;28;20048;-81
2021/10/19 06:09:53;;;;;;;8.43;5.20;;;;;;;;;;5078991;28;20071;-82
2021/10/19 06:12:21;;;;;;;8.85;5.28;;;;;;;;;;5060192;28;20049;-82
2021/10/19 06:14:47;;;;;;;7.68;4.82;;;;;;;;;;5058254;28;20099;-81
2021/10/19 06:17:14;;;;;;;18.83;5.10;;;;;;;;;;5058186;28;20095;-81
2021/10/19 06:19:40;;;;;;;10.18;5.07;;;;;;;;;;5058830;28;20095;-81
2021/10/19 06:22:07;;;;;;;19.83;6.05;;;;;;;;;;5058380;28;20063;-82
2021/10/19 06:24:33;;;;;;;7.75;4.65;;;;;;;;;;5057670;28;20052;-81
2021/10/19 06:27:00;;;;;;;9.85;5.22;;;;;;;;;;5059075;28;20041;-81
2021/10/19 06:29:31;;;;;;;11.68;5.18;;;;;;;;;;5076871;28;20055;-81
2021/10/19 06:31:57;;;;;;;8.85;5.28;;;;;;;;;;5077298;28;20048;-81
2021/10/19 06:34:24;;;;;;;12.60;5.65;;;;;;;;;;5076452;28;20052;-81
2021/10/19 06:36:50;;;;;;;9.45;4.97;;;;;;;;;;5076675;28;20055;-82
2021/10/19 06:39:16;;;;;;;8.98;4.45;;;;;;;;;;5076886;28;20044;-82
2021/10/19 06:41:43;;;;;;;13.50;5.18;;;;;;;;;;5076354;28;20094;-81
2021/10/19 06:44:09;;;;;;;8.10;4.57;;;;;;;;;;5076938;28;20048;-81
2021/10/19 06:46:39;;;;;;;6.40;4.57;;;;;;;;;;5076177;28;20543;-81
2021/10/19 06:49:05;;;;;;;7.72;4.43;;;;;;;;;;5076593;28;20441;-81
2021/10/19 06:51:31;;;;;;;6.55;4.25;;;;;;;;;;5076023;28;20057;-82
2021/10/19 06:53:58;;;;;;;15.75;6.25;;;;;;;;;;5075679;28;20051;-82
2021/10/19 06:56:24;;;;;;;10.50;6.05;;;;;;;;;;5076307;28;20139;-82
2021/10/19 06:58:51;;;;;;;11.77;5.70;;;;;;;;;;5075252;28;20041;-82
2021/10/19 07:01:19;;;;;;;7.95;5.43;;;;;;;;;;5075801;28;20056;-81
2021/10/19 07:03:47;;;;;;;17.23;4.45;;;;;;;;;;5076451;28;20416;-82
2021/10/19 07:06:14;;;;;;;6.80;3.80;;;;;;;;;;5077320;28;20077;-82
2021/10/19 07:08:40;;;;;;;8.73;4.43;;;;;;;;;;5077197;28;20106;-82
2021/10/19 07:11:07;;;;;;;8.52;4.15;;;;;;;;;;5065979;28;20060;-82
2021/10/19 07:13:34;;;;;;;5.25;3.83;;;;;;;;;;5056713;28;20045;-82
2021/10/19 07:16:00;;;;;;;6.22;4.10;;;;;;;;;;5056921;28;20045;-82
2021/10/19 07:18:27;;;;;;;7.10;4.35;;;;;;;;;;5058011;28;20060;-82
2021/10/19 07:20:55;;;;;;;9.07;5.10;;;;;;;;;;5076307;28;20553;-82
2021/10/19 07:23:22;;;;;;;8.38;5.95;;;;;;;;;;5076835;28;20068;-82
2021/10/19 07:25:49;;;;;;;20.33;7.18;;;;;;;;;;5076338;28;20051;-82
2021/10/19 07:28:15;;;;;;;19.05;8.00;;;;;;;;;;5076562;28;20063;-82
2021/10/19 07:30:42;;;;;;;13.40;7.45;;;;;;;;;;5076301;28;20444;-82
2021/10/19 07:33:12;;;;;;;15.20;7.20;;;;;;;;;;5075735;28;20139;-82
2021/10/19 07:35:39;;;;;;;16.83;6.95;;;;;;;;;;5076276;28;20045;-82
2021/10/19 07:38:07;;;;;;;15.82;8.27;;;;;;;;;;5075284;28;20502;-81
2021/10/19 07:40:33;;;;;;;14.77;6.78;;;;;;;;;;5076121;28;20477;-82
2021/10/19 07:43:00;;;;;;;16.17;7.10;;;;;;;;;;5076329;28;20048;-82
2021/10/19 07:45:26;;;;;;;10.00;6.20;;;;;;;;;;5075456;28;20045;-82
2021/10/19 07:47:53;;;;;;;10.02;6.38;;;;;;;;;;5075386;28;20127;-82
2021/10/19 07:50:21;;;;;;;8.75;6.18;;;;;;;;;;5058911;28;20049;-82
2021/10/19 07:52:49;;;;;;;8.70;5.82;;;;;;;;;;5055394;28;20056;-82
2021/10/19 07:55:20;;;;;;;10.13;6.40;;;;;;;;;;5055511;28;20144;-82
2021/10/19 07:57:48;;;;;;;15.95;7.22;;;;;;;;;;5056026;28;20052;-82
2021/10/19 08:00:16;;;;;;;15.20;6.97;;;;;;;;;;5055342;28;20506;-82
2021/10/19 08:02:43;;;;;;;14.00;7.07;;;;;;;;;;5065841;28;20055;-82
2021/10/19 08:05:13;;;;;;;21.27;8.25;;;;;;;;;;5074855;28;20048;-82
2021/10/19 08:07:40;;;;;;;30.77;8.90;;;;;;;;;;5075190;28;20044;-82
2021/10/19 08:10:07;;;;;;;18.58;8.68;;;;;;;;;;5075628;28;20091;-82
2021/10/19 08:12:35;;;;;;;13.80;7.78;;;;;;;;;;5075755;28;20045;-82
2021/10/19 08:15:02;;;;;;;14.05;6.47;;;;;;;;;;5074187;28;20075;-82
2021/10/19 08:17:28;;;;;;;10.93;5.25;;;;;;;;;;5074975;28;20045;-82
2021/10/19 08:19:59;;;;;;;9.73;5.65;;;;;;;;;;5074279;28;20049;-82
2021/10/19 08:22:25;;;;;;;9.02;6.10;;;;;;;;;;5074592;28;20132;-82
2021/10/19 08:24:52;;;;;;;12.93;7.32;;;;;;;;;;5074200;28;20083;-82
2021/10/19 08:27:18;;;;;;;14.77;9.50;;;;;;;;;;5074355;28;20044;-82
2021/10/19 08:29:46;;;;;;;14.48;7.95;;;;;;;;;;5074577;28;20059;-82
2021/10/19 08:32:12;;;;;;;14.73;8.07;;;;;;;;;;5074271;28;20033;-82
2021/10/19 08:34:39;;;;;;;21.40;8.50;;;;;;;;;;5074748;28;20051;-82
2021/10/19 08:37:05;;;;;;;16.00;8.63;;;;;;;;;;5074944;28;20055;-82
2021/10/19 08:39:32;;;;;;;15.98;7.85;;;;;;;;;;5074363;28;20068;-82
2021/10/19 08:41:58;;;;;;;11.85;6.25;;;;;;;;;;5074284;28;20055;-82
2021/10/19 08:44:25;;;;;;;10.27;6.82;;;;;;;;;;5073600;28;20052;-82
2021/10/19 08:46:53;;;;;;;10.77;7.05;;;;;;;;;;5073729;28;20051;-82
2021/10/19 08:49:20;;;;;;;10.85;6.60;;;;;;;;;;5071563;28;20048;-82
2021/10/19 08:51:46;;;;;;;11.00;6.32;;;;;;;;;;5058050;28;20055;-82
2021/10/19 08:54:13;;;;;;;10.43;6.90;;;;;;;;;;5058148;28;20049;-82
2021/10/19 08:56:40;;;;;;;11.50;6.35;;;;;;;;;;5057442;28;20386;-82
2021/10/19 08:59:07;;;;;;;11.50;6.57;;;;;;;;;;5057384;28;20068;-82
2021/10/19 09:01:34;;;;;;;8.60;5.85;;;;;;;;;;5057330;28;20056;-82
2021/10/19 09:04:06;;;;;;;9.65;6.10;;;;;;;;;;5057236;28;20146;-82
2021/10/19 09:06:33;;;;;;;9.05;5.63;;;;;;;;;;5057462;28;20589;-82
2021/10/19 09:09:05;;;;;;;10.23;6.20;;;;;;;;;;5057273;28;20049;-82
2021/10/19 09:11:37;;;;;;;9.70;5.20;;;;;;;;;;5058225;28;20060;-82
2021/10/19 09:14:04;;;;;;;10.32;6.05;;;;;;;;;;5057797;28;20056;-82
2021/10/19 09:16:41;;;;;;;10.68;6.07;;;;;;;;;;5057753;28;20452;-82
2021/10/19 09:19:10;;;;;;;8.88;5.60;;;;;;;;;;5060491;28;20374;-82
2021/10/19 09:21:37;;;;;;;8.30;5.43;;;;;;;;;;5077044;28;20048;-82
2021/10/19 09:24:31;;;;;;;9.50;6.15;;;;;;;;;;5077176;28;20451;-82
2021/10/19 09:27:00;;;;;;;9.38;6.07;;;;;;;;;;5028793;28;20052;-82
2021/10/19 09:29:28;;;;;;;7.78;5.85;;;;;;;;;;5066313;28;20048;-82
2021/10/19 09:31:55;;;;;;;9.02;6.13;;;;;;;;;;5076364;28;20045;-82
2021/10/19 09:34:24;;;;;;;10.63;5.47;;;;;;;;;;5076057;28;20052;-82
2021/10/19 09:36:51;;;;;;;17.30;9.98;;;;;;;;;;5076507;28;20045;-82
2021/10/19 09:39:31;;;;;;;10.50;6.93;;;;;;;;;;5076573;28;20135;-82
2021/10/19 09:41:58;;;;;;;11.23;6.93;;;;;;;;;;5076073;28;20040;-82
2021/10/19 09:44:25;;;;;;;10.63;6.38;;;;;;;;;;5076138;28;20048;-82
2021/10/19 09:46:51;;;;;;;8.60;5.70;;;;;;;;;;5075585;28;20056;-82
2021/10/19 09:49:18;;;;;;;10.93;5.85;;;;;;;;;;5076112;28;20053;-82
2021/10/19 09:51:46;;;;;;;8.93;5.90;;;;;;;;;;5075778;28;20048;-82
2021/10/19 09:54:13;;;;;;;13.43;6.50;;;;;;;;;;5075652;28;20052;-82
2021/10/19 09:56:40;;;;;;;10.75;6.47;;;;;;;;;;5074959;28;20052;-82
2021/10/19 09:59:08;;;;;;;11.32;7.07;;;;;;;;;;5058548;28;20049;-82
2021/10/19 10:01:35;;;;;;;20.15;8.75;;;;;;;;;;5057701;28;20045;-82
2021/10/19 10:04:01;;;;;;;12.23;7.65;;;;;;;;;;5058007;28;20501;-80
2021/10/19 10:06:28;;;;;;;11.63;7.43;;;;;;;;;;5058699;28;20052;-80
2021/10/19 10:08:57;;;;;;;14.32;8.07;;;;;;;;;;5056468;28;20053;-81
2021/10/19 10:11:23;;;;;;;9.38;5.57;;;;;;;;;;5055295;28;20049;-80
2021/10/19 10:13:57;;;;;;;6.55;4.45;;;;;;;;;;5055060;28;20049;-81
2021/10/19 10:16:23;;;;;;;7.00;4.30;;;;;;;;;;5054940;28;20500;-80
2021/10/19 10:18:50;;;;;;;8.07;4.40;;;;;;;;;;5055139;28;20053;-81
2021/10/19 10:21:18;;;;;;;7.93;4.90;;;;;;;;;;5075132;28;20272;-80
2021/10/19 10:23:45;;;;;;;8.60;5.05;;;;;;;;;;5074445;28;20044;-81
2021/10/19 10:26:24;;;;;;;11.70;4.55;;;;;;;;;;5075672;28;20049;-81
2021/10/19 10:28:51;;;;;;;8.60;5.40;;;;;;;;;;5075363;28;20044;-81
2021/10/19 10:31:21;;;;;;;8.40;5.03;;;;;;;;;;5074945;28;20052;-80
2021/10/19 10:33:50;;;;;;;8.02;4.85;;;;;;;;;;5075330;28;20048;-81
2021/10/19 10:36:17;;;;;;;6.82;4.80;;;;;;;;;;5075821;28;20060;-81
2021/10/19 10:38:54;;;;;;;11.50;6.18;;;;;;;;;;5074544;28;20075;-81
2021/10/19 10:41:21;;;;;;;10.02;6.85;;;;;;;;;;5075114;28;20076;-81
2021/10/19 10:43:57;;;;;;;10.77;5.68;;;;;;;;;;5075180;28;20505;-81
2021/10/19 10:46:24;;;;;;;;;;;;;;;;;;5075375;28;20044;-81
2021/10/19 10:48:51;;;;;;;9.73;4.78;;;;;;;;;;5074272;28;19924;-81
2021/10/19 10:51:26;;;;;;;10.88;6.03;;;;;;;;;;5054822;28;20067;-81
2021/10/19 10:53:52;;;;;;;9.70;5.23;;;;;;;;;;5055434;28;20052;-81
2021/10/19 10:56:19;;;;;;;12.35;5.90;;;;;;;;;;5054219;28;20502;-81
2021/10/19 10:58:50;;;;;;;14.85;5.68;;;;;;;;;;5055262;28;20052;-81
2021/10/19 11:01:18;;;;;;;16.27;6.40;;;;;;;;;;5054763;28;20516;-81
2021/10/19 11:03:45;;;;;;;8.80;5.75;;;;;;;;;;5054763;28;20049;-80
2021/10/19 11:06:14;;;;;;;9.88;5.03;;;;;;;;;;5055920;28;20045;-80
2021/10/19 11:08:40;;;;;;;7.60;4.40;;;;;;;;;;5054538;28;20072;-81
2021/10/19 11:11:09;;;;;;;8.30;4.85;;;;;;;;;;5054749;28;20553;-81
2021/10/19 11:14:00;;;;;;;10.77;5.20;;;;;;;;;;5053764;28;20478;-80
2021/10/19 11:16:32;;;;;;;9.27;5.25;;;;;;;;;;5054954;28;20095;-81
2021/10/19 11:18:59;;;;;;;8.00;5.05;;;;;;;;;;5059742;28;20044;-81
2021/10/19 11:21:25;;;;;;;9.90;5.80;;;;;;;;;;5078940;28;20068;-81
2021/10/19 11:23:51;;;;;;;7.28;5.47;;;;;;;;;;5078715;28;20056;-81
2021/10/19 11:26:18;;;;;;;10.15;6.05;;;;;;;;;;5078909;28;20044;-81
2021/10/19 11:28:45;;;;;;;10.25;5.60;;;;;;;;;;5077717;28;20459;-81
2021/10/19 11:31:14;;;;;;;7.78;5.72;;;;;;;;;;5077821;28;20052;-81
2021/10/19 11:33:42;;;;;;;8.38;4.90;;;;;;;;;;5078366;28;20040;-81
2021/10/19 11:36:09;;;;;;;9.13;5.43;;;;;;;;;;5077674;28;20060;-81
2021/10/19 11:38:41;;;;;;;9.48;5.00;;;;;;;;;;5077110;28;20053;-81
2021/10/19 11:41:10;;;;;;;8.48;5.30;;;;;;;;;;5076457;28;20049;-81
2021/10/19 11:43:40;;;;;;;7.60;5.15;;;;;;;;;;5076980;28;20056;-81
2021/10/19 11:46:08;;;;;;;8.02;5.65;;;;;;;;;;5077530;28;20056;-81
2021/10/19 11:48:39;;;;;;;8.77;5.70;;;;;;;;;;5077481;28;20420;-81
2021/10/19 11:51:08;;;;;;;7.88;5.35;;;;;;;;;;5076406;28;20057;-81
2021/10/19 11:53:35;;;;;;;9.05;5.78;;;;;;;;;;5076558;28;20131;-81
2021/10/19 11:56:04;;;;;;;11.45;5.63;;;;;;;;;;5075923;28;20463;-81
2021/10/19 11:58:31;;;;;;;8.13;5.00;;;;;;;;;;5075972;28;20048;-81
2021/10/19 12:00:57;;;;;;;12.18;5.68;;;;;;;;;;5076502;28;20059;-81
2021/10/19 12:03:29;;;;;;;9.48;5.00;;;;;;;;;;5076200;28;20072;-81
2021/10/19 12:05:57;;;;;;;8.80;6.07;;;;;;;;;;5076713;28;20083;-81
2021/10/19 12:08:29;;;;;;;7.00;4.38;;;;;;;;;;5076483;28;20079;-81
2021/10/19 12:10:56;;;;;;;9.32;5.15;;;;;;;;;;5075903;28;20192;-81
2021/10/19 12:13:26;;;;;;;8.63;5.00;;;;;;;;;;5076173;28;20048;-81
2021/10/19 12:15:55;;;;;;;8.60;5.32;;;;;;;;;;5076062;28;20048;-81
2021/10/19 12:18:21;;;;;;;7.93;5.25;;;;;;;;;;5075373;28;20060;-81
2021/10/19 12:20:49;;;;;;;8.70;4.78;;;;;;;;;;5056733;28;20486;-81
2021/10/19 12:23:18;;;;;;;7.68;4.75;;;;;;;;;;5055187;28;20104;-81
2021/10/19 12:25:46;;;;;;;7.03;4.13;;;;;;;;;;5055305;28;20068;-81
2021/10/19 12:28:16;;;;;;;5.68;3.28;;;;;;;;;;5055729;28;20421;-81
2021/10/19 12:30:43;;;;;;;11.32;3.63;;;;;;;;;;5055484;28;20129;-81
2021/10/19 12:33:17;;;;;;;6.10;2.80;;;;;;;;;;5055293;28;20443;-81
2021/10/19 12:35:53;;;;;;;4.18;2.67;;;;;;;;;;5055156;28;20072;-81
2021/10/19 12:38:21;;;;;;;4.32;2.30;;;;;;;;;;5054693;28;20041;-82
2021/10/19 12:40:48;;;;;;;7.95;2.92;;;;;;;;;;5055655;28;20048;-81
2021/10/19 12:43:15;;;;;;;4.80;2.33;;;;;;;;;;5055009;28;20533;-81
2021/10/19 12:45:41;;;;;;;3.45;2.13;;;;;;;;;;5055124;28;20543;-81
2021/10/19 12:48:08;;;;;;;4.38;1.85;;;;;;;;;;5055624;28;20064;-81
2021/10/19 12:50:35;;;;;;;3.45;2.13;;;;;;;;;;5079789;28;20053;-82
2021/10/19 12:53:01;;;;;;;4.18;1.92;;;;;;;;;;5080325;28;20157;-82
2021/10/19 12:55:29;;;;;;;2.70;1.48;;;;;;;;;;5081466;28;20057;-82
2021/10/19 12:57:57;;;;;;;4.93;1.90;;;;;;;;;;5082657;28;20060;-82
2021/10/19 13:00:23;;;;;;;3.90;1.90;;;;;;;;;;5080798;28;20067;-81
2021/10/19 13:02:50;;;;;;;5.10;2.63;;;;;;;;;;5080033;28;20060;-82
2021/10/19 13:05:16;;;;;;;4.45;1.73;;;;;;;;;;5080649;28;20048;-82
2021/10/19 13:07:45;;;;;;;3.55;1.83;;;;;;;;;;5080586;28;20045;-82
2021/10/19 13:10:11;;;;;;;4.95;2.60;;;;;;;;;;5081065;28;20057;-80
2021/10/19 13:12:39;;;;;;;3.45;1.73;;;;;;;;;;5079615;28;20059;-80
2021/10/19 13:15:06;;;;;;;5.45;2.03;;;;;;;;;;5079715;28;20052;-81
2021/10/19 13:17:33;;;;;;;3.15;1.63;;;;;;;;;;5078429;28;20059;-80
2021/10/19 13:19:59;;;;;;;4.18;1.70;;;;;;;;;;5079698;28;20040;-80
2021/10/19 13:22:25;;;;;;;2.97;1.50;;;;;;;;;;5078133;28;20053;-81
2021/10/19 13:24:52;;;;;;;2.40;1.45;;;;;;;;;;5078799;28;20045;-80
2021/10/19 13:27:19;;;;;;;5.93;2.05;;;;;;;;;;5078824;28;20124;-80
2021/10/19 13:29:47;;;;;;;3.55;1.80;;;;;;;;;;5077945;28;20496;-81
2021/10/19 13:32:13;;;;;;;3.92;1.55;;;;;;;;;;5069858;28;20044;-81
2021/10/19 13:34:39;;;;;;;2.70;1.50;;;;;;;;;;5077754;28;20048;-81
2021/10/19 13:37:06;;;;;;;8.43;2.15;;;;;;;;;;5080012;28;20510;-80
2021/10/19 13:39:32;;;;;;;2.95;1.85;;;;;;;;;;5082100;28;20088;-80
2021/10/19 13:41:59;;;;;;;3.28;1.48;;;;;;;;;;5081351;28;20055;-81
2021/10/19 13:44:25;;;;;;;4.85;1.75;;;;;;;;;;5081786;28;20416;-81
2021/10/19 13:46:53;;;;;;;3.42;1.33;;;;;;;;;;5080526;28;20064;-80
2021/10/19 13:49:19;;;;;;;2.63;1.45;;;;;;;;;;5080414;28;20079;-81
2021/10/19 13:51:46;;;;;;;5.32;1.70;;;;;;;;;;5080667;28;20053;-81
2021/10/19 13:54:12;;;;;;;3.00;1.70;;;;;;;;;;5078785;28;20070;-80
2021/10/19 13:56:39;;;;;;;3.35;1.52;;;;;;;;;;5080318;28;20066;-81
2021/10/19 13:59:06;;;;;;;3.67;1.55;;;;;;;;;;5080642;28;20049;-81
2021/10/19 14:01:32;;;;;;;3.10;1.75;;;;;;;;;;5081342;28;20040;-81
2021/10/19 14:04:00;;;;;;;2.20;1.23;;;;;;;;;;5082044;28;20044;-81
2021/10/19 14:06:26;;;;;;;2.33;1.17;;;;;;;;;;5081904;28;20052;-81
2021/10/19 14:08:53;;;;;;;3.63;1.33;;;;;;;;;;5081607;28;20045;-81
2021/10/19 14:11:21;;;;;;;3.75;1.20;;;;;;;;;;5081161;28;20040;-81
2021/10/19 14:13:53;;;;;;;3.28;1.63;;;;;;;;;;5081627;28;20044;-81
2021/10/19 14:16:20;;;;;;;3.33;1.75;;;;;;;;;;5080708;28;20378;-81
2021/10/19 14:18:46;;;;;;;2.78;1.10;;;;;;;;;;5078581;28;20044;-80
2021/10/19 14:21:14;;;;;;;2.45;1.40;;;;;;;;;;5078084;28;20425;-80
2021/10/19 14:23:40;;;;;;;3.15;1.55;;;;;;;;;;5080280;28;20043;-81
2021/10/19 14:26:07;;;;;;;4.32;1.88;;;;;;;;;;5080232;28;20049;-80
2021/10/19 14:28:34;;;;;;;3.55;1.35;;;;;;;;;;5081849;28;20102;-81
2021/10/19 14:31:01;;;;;;;2.72;1.38;;;;;;;;;;5079154;28;20055;-80
2021/10/19 14:33:27;;;;;;;3.10;1.45;;;;;;;;;;5079905;28;20048;-81
2021/10/19 14:35:55;;;;;;;3.90;1.50;;;;;;;;;;5078074;28;20045;-82
2021/10/19 14:38:25;;;;;;;2.55;1.42;;;;;;;;;;5071990;28;20146;-82